Terminal Aerodrome Forecast
Issued by NWS Mt. Holly, NJ

Home | Current Version | Previous Version | Text Only | Print | Product List | Glossary On
Versions: 1 2 3 4 5 6 7 8 9 10 11 12 13 14 15 16 17 18 19 20 21 22 23 24 25 26 27 28 29 30 31 32 33 34 35 36 37 38 39 40 41 42 43 44 45 46 47 48 49 50
000
FTUS41 KPHI 042343
TAFABE
TAF
KABE 042343Z 0500/0524 07008KT P6SM SCT030 BKN050
     FM050300 09005KT P6SM BKN030
     FM050700 06004KT 4SM BR FEW009 BKN015
      TEMPO 0510/0512 BKN009
     FM051300 07007KT P6SM SCT025 BKN050=

USA.gov is the U.S. government's official web portal to all federal, state and local government web resources and services.